Rutherfordton, North Carolina
Current Conditions -  °F | °C
As of 7:15 AM on Monday 20 Oct 2014 (Local Time) from KFQD Reporting Station
Clear Clear  
Wind Chill: 41°   Ceiling: Unl
Heat Index: 41°   Visibility: 10mi
Dew Point: 41°   Wind: 3mph
Humidity: 99%   Direction: 310°NW
Pressure: 30.13"   Gusts: NA
Location:  35.37°N, 81.96°W
Report Text: KFQD 201115Z AUTO 31003KT 10SM CLR 05/05 A3013 RMK AO2 T00490048
Loading
Personal Weather Stations






























Interactive Weather Map
Tropical Storm Tracking
New forecast layout! Learn more

10-Day Weather Forecast

Advertisements
Track Severe Weather on mobile